sensor_id;sensor_type;location;lat;lon;timestamp;temperature;humidity
29403;DHT22;16382;59.942;30.472;2023-04-03T00:01:04;0.00;99.90
29403;DHT22;16382;59.942;30.472;2023-04-03T00:03:32;-0.10;99.90
29403;DHT22;16382;59.942;30.472;2023-04-03T00:06:01;-0.10;99.90
29403;DHT22;16382;59.942;30.472;2023-04-03T00:08:29;-0.10;99.90
29403;DHT22;16382;59.942;30.472;2023-04-03T00:10:58;0.00;99.90
29403;DHT22;16382;59.942;30.472;2023-04-03T00:13:26;-0.10;99.90
29403;DHT22;16382;59.942;30.472;2023-04-03T00:15:53;0.00;99.90
29403;DHT22;16382;59.942;30.472;2023-04-03T00:18:21;0.00;99.90
29403;DHT22;16382;59.942;30.472;2023-04-03T00:20:48;0.00;99.90
29403;DHT22;16382;59.942;30.472;2023-04-03T00:23:17;0.00;99.90
29403;DHT22;16382;59.942;30.472;2023-04-03T00:25:45;-0.10;99.90
29403;DHT22;16382;59.942;30.472;2023-04-03T00:28:12;0.00;99.90
29403;DHT22;16382;59.942;30.472;2023-04-03T00:30:40;-0.10;99.90
29403;DHT22;16382;59.942;30.472;2023-04-03T00:33:08;-0.10;99.90
29403;DHT22;16382;59.942;30.472;2023-04-03T00:35:36;0.00;99.90
29403;DHT22;16382;59.942;30.472;2023-04-03T00:38:04;-0.10;99.90
29403;DHT22;16382;59.942;30.472;2023-04-03T00:40:35;-0.10;99.90
29403;DHT22;16382;59.942;30.472;2023-04-03T00:43:11;-0.10;99.90
29403;DHT22;16382;59.942;30.472;2023-04-03T00:45:42;-0.10;99.90
29403;DHT22;16382;59.942;30.472;2023-04-03T00:48:15;-0.10;99.90
29403;DHT22;16382;59.942;30.472;2023-04-03T00:50:46;-0.10;99.90
29403;DHT22;16382;59.942;30.472;2023-04-03T00:53:16;-0.10;99.90
29403;DHT22;16382;59.942;30.472;2023-04-03T00:55:47;-0.10;99.90
29403;DHT22;16382;59.942;30.472;2023-04-03T00:58:16;-0.10;99.90
29403;DHT22;16382;59.942;30.472;2023-04-03T01:00:49;-0.10;99.90
29403;DHT22;16382;59.942;30.472;2023-04-03T01:03:23;-0.10;99.90
29403;DHT22;16382;59.942;30.472;2023-04-03T01:05:52;-0.10;99.90
29403;DHT22;16382;59.942;30.472;2023-04-03T01:08:21;-0.20;99.90
29403;DHT22;16382;59.942;30.472;2023-04-03T01:10:50;-0.20;99.90
29403;DHT22;16382;59.942;30.472;2023-04-03T01:13:22;-0.20;99.90
29403;DHT22;16382;59.942;30.472;2023-04-03T01:15:51;-0.20;99.90
29403;DHT22;16382;59.942;30.472;2023-04-03T01:18:19;-0.20;99.90
29403;DHT22;16382;59.942;30.472;2023-04-03T01:21:18;-0.20;99.90
29403;DHT22;16382;59.942;30.472;2023-04-03T01:24:16;-0.30;99.90
29403;DHT22;16382;59.942;30.472;2023-04-03T01:26:51;-0.20;99.90
29403;DHT22;16382;59.942;30.472;2023-04-03T01:29:19;-0.30;99.90
29403;DHT22;16382;59.942;30.472;2023-04-03T01:31:53;-0.30;99.90
29403;DHT22;16382;59.942;30.472;2023-04-03T01:34:25;-0.30;99.90
29403;DHT22;16382;59.942;30.472;2023-04-03T01:36:53;-0.30;99.90
29403;DHT22;16382;59.942;30.472;2023-04-03T01:39:22;-0.30;99.90
29403;DHT22;16382;59.942;30.472;2023-04-03T01:41:50;-0.30;99.90
29403;DHT22;16382;59.942;30.472;2023-04-03T01:44:25;-0.30;99.90
29403;DHT22;16382;59.942;30.472;2023-04-03T01:46:54;-0.40;99.90
29403;DHT22;16382;59.942;30.472;2023-04-03T01:49:23;-0.40;99.90
29403;DHT22;16382;59.942;30.472;2023-04-03T01:51:51;-0.40;99.90
29403;DHT22;16382;59.942;30.472;2023-04-03T01:54:18;-0.40;99.90
29403;DHT22;16382;59.942;30.472;2023-04-03T01:56:46;-0.40;99.90
29403;DHT22;16382;59.942;30.472;2023-04-03T01:59:14;-0.40;99.90
29403;DHT22;16382;59.942;30.472;2023-04-03T02:01:43;-0.40;99.90
29403;DHT22;16382;59.942;30.472;2023-04-03T02:04:14;-0.40;99.90
29403;DHT22;16382;59.942;30.472;2023-04-03T02:06:41;-0.50;99.90
29403;DHT22;16382;59.942;30.472;2023-04-03T02:09:08;-0.50;99.90
29403;DHT22;16382;59.942;30.472;2023-04-03T02:11:36;-0.50;99.90
29403;DHT22;16382;59.942;30.472;2023-04-03T02:14:03;-0.50;99.90
29403;DHT22;16382;59.942;30.472;2023-04-03T02:16:31;-0.50;99.90
29403;DHT22;16382;59.942;30.472;2023-04-03T02:18:58;-0.50;99.90
29403;DHT22;16382;59.942;30.472;2023-04-03T02:21:27;-0.50;99.90
29403;DHT22;16382;59.942;30.472;2023-04-03T02:23:55;-0.50;99.90
29403;DHT22;16382;59.942;30.472;2023-04-03T02:26:23;-0.50;99.90
29403;DHT22;16382;59.942;30.472;2023-04-03T02:28:50;-0.50;99.90
29403;DHT22;16382;59.942;30.472;2023-04-03T02:31:18;-0.60;99.90
29403;DHT22;16382;59.942;30.472;2023-04-03T02:33:47;-0.60;99.90
29403;DHT22;16382;59.942;30.472;2023-04-03T02:36:15;-0.70;99.90
29403;DHT22;16382;59.942;30.472;2023-04-03T02:38:50;-0.80;99.90
29403;DHT22;16382;59.942;30.472;2023-04-03T02:41:18;-0.80;99.90
29403;DHT22;16382;59.942;30.472;2023-04-03T02:43:48;-0.80;99.90
29403;DHT22;16382;59.942;30.472;2023-04-03T02:46:16;-0.80;99.90
29403;DHT22;16382;59.942;30.472;2023-04-03T02:48:44;-0.80;99.90
29403;DHT22;16382;59.942;30.472;2023-04-03T02:51:11;-0.80;99.90
29403;DHT22;16382;59.942;30.472;2023-04-03T02:53:39;-0.80;99.90
29403;DHT22;16382;59.942;30.472;2023-04-03T02:56:14;-0.70;99.90
29403;DHT22;16382;59.942;30.472;2023-04-03T02:58:41;-0.80;99.90
29403;DHT22;16382;59.942;30.472;2023-04-03T03:01:09;-0.80;99.90
29403;DHT22;16382;59.942;30.472;2023-04-03T03:03:37;-0.80;99.90
29403;DHT22;16382;59.942;30.472;2023-04-03T03:06:06;-0.80;99.90
29403;DHT22;16382;59.942;30.472;2023-04-03T03:08:35;-0.80;99.90
29403;DHT22;16382;59.942;30.472;2023-04-03T03:11:03;-0.80;99.90
29403;DHT22;16382;59.942;30.472;2023-04-03T03:13:32;-0.80;99.90
29403;DHT22;16382;59.942;30.472;2023-04-03T03:16:00;-0.70;99.90
29403;DHT22;16382;59.942;30.472;2023-04-03T03:18:29;-0.70;99.90
29403;DHT22;16382;59.942;30.472;2023-04-03T03:20:58;-0.80;99.90
29403;DHT22;16382;59.942;30.472;2023-04-03T03:23:28;-0.80;99.90
29403;DHT22;16382;59.942;30.472;2023-04-03T03:25:57;-0.80;99.90
29403;DHT22;16382;59.942;30.472;2023-04-03T03:28:25;-0.80;99.90
29403;DHT22;16382;59.942;30.472;2023-04-03T03:30:54;-0.80;99.90
29403;DHT22;16382;59.942;30.472;2023-04-03T03:33:22;-0.70;99.90
29403;DHT22;16382;59.942;30.472;2023-04-03T03:35:51;-0.70;99.90
29403;DHT22;16382;59.942;30.472;2023-04-03T03:38:19;-0.60;99.90
29403;DHT22;16382;59.942;30.472;2023-04-03T03:40:47;-0.70;99.90
29403;DHT22;16382;59.942;30.472;2023-04-03T03:43:17;-0.70;99.90
29403;DHT22;16382;59.942;30.472;2023-04-03T03:45:50;-0.70;99.90
29403;DHT22;16382;59.942;30.472;2023-04-03T03:48:20;-0.60;99.90
29403;DHT22;16382;59.942;30.472;2023-04-03T03:50:49;-0.70;99.90
29403;DHT22;16382;59.942;30.472;2023-04-03T03:53:20;-0.60;99.90
29403;DHT22;16382;59.942;30.472;2023-04-03T03:55:51;-0.70;99.90
29403;DHT22;16382;59.942;30.472;2023-04-03T03:58:20;-0.60;99.90
29403;DHT22;16382;59.942;30.472;2023-04-03T04:00:48;-0.50;99.90
29403;DHT22;16382;59.942;30.472;2023-04-03T04:03:16;-0.50;99.90
29403;DHT22;16382;59.942;30.472;2023-04-03T04:05:47;-0.50;99.90
29403;DHT22;16382;59.942;30.472;2023-04-03T04:08:16;-0.40;99.90
29403;DHT22;16382;59.942;30.472;2023-04-03T04:10:45;-0.40;99.90
29403;DHT22;16382;59.942;30.472;2023-04-03T04:13:14;-0.40;99.90
29403;DHT22;16382;59.942;30.472;2023-04-03T04:15:42;-0.40;99.90
29403;DHT22;16382;59.942;30.472;2023-04-03T04:18:10;-0.40;99.90
29403;DHT22;16382;59.942;30.472;2023-04-03T04:20:40;-0.40;99.90
29403;DHT22;16382;59.942;30.472;2023-04-03T04:23:09;-0.40;99.90
29403;DHT22;16382;59.942;30.472;2023-04-03T04:25:37;-0.40;99.90
29403;DHT22;16382;59.942;30.472;2023-04-03T04:28:06;-0.40;99.90
29403;DHT22;16382;59.942;30.472;2023-04-03T04:30:34;-0.30;99.90
29403;DHT22;16382;59.942;30.472;2023-04-03T04:33:03;-0.30;99.90
29403;DHT22;16382;59.942;30.472;2023-04-03T04:35:33;-0.30;99.90
29403;DHT22;16382;59.942;30.472;2023-04-03T04:38:02;-0.20;99.90
29403;DHT22;16382;59.942;30.472;2023-04-03T04:40:31;-0.20;99.90
29403;DHT22;16382;59.942;30.472;2023-04-03T04:42:59;-0.10;99.90
29403;DHT22;16382;59.942;30.472;2023-04-03T04:45:26;-0.10;99.90
29403;DHT22;16382;59.942;30.472;2023-04-03T04:47:55;-0.10;99.90
29403;DHT22;16382;59.942;30.472;2023-04-03T04:50:29;-0.10;99.90
29403;DHT22;16382;59.942;30.472;2023-04-03T04:53:00;-0.10;99.90
29403;DHT22;16382;59.942;30.472;2023-04-03T04:55:28;-0.10;99.90
29403;DHT22;16382;59.942;30.472;2023-04-03T04:57:57;-0.10;99.90
29403;DHT22;16382;59.942;30.472;2023-04-03T05:00:24;-0.10;99.90
29403;DHT22;16382;59.942;30.472;2023-04-03T05:02:52;-0.10;99.90
29403;DHT22;16382;59.942;30.472;2023-04-03T05:05:20;0.00;99.90
29403;DHT22;16382;59.942;30.472;2023-04-03T05:07:48;0.00;99.90
29403;DHT22;16382;59.942;30.472;2023-04-03T05:10:16;0.10;99.90
29403;DHT22;16382;59.942;30.472;2023-04-03T05:12:45;0.00;99.90
29403;DHT22;16382;59.942;30.472;2023-04-03T05:15:15;0.10;99.90
29403;DHT22;16382;59.942;30.472;2023-04-03T05:17:44;0.10;99.90
29403;DHT22;16382;59.942;30.472;2023-04-03T05:20:13;0.10;99.90
29403;DHT22;16382;59.942;30.472;2023-04-03T05:22:42;0.20;99.90
29403;DHT22;16382;59.942;30.472;2023-04-03T05:25:10;0.20;99.90
29403;DHT22;16382;59.942;30.472;2023-04-03T05:27:41;0.20;99.90
29403;DHT22;16382;59.942;30.472;2023-04-03T05:30:10;0.20;99.90
29403;DHT22;16382;59.942;30.472;2023-04-03T05:32:41;0.30;99.90
29403;DHT22;16382;59.942;30.472;2023-04-03T05:35:17;0.20;99.90
29403;DHT22;16382;59.942;30.472;2023-04-03T05:37:48;0.20;99.90
29403;DHT22;16382;59.942;30.472;2023-04-03T05:40:16;0.20;99.90
29403;DHT22;16382;59.942;30.472;2023-04-03T05:42:46;0.30;99.90
29403;DHT22;16382;59.942;30.472;2023-04-03T05:45:16;0.30;99.90
29403;DHT22;16382;59.942;30.472;2023-04-03T05:47:45;0.30;99.90
29403;DHT22;16382;59.942;30.472;2023-04-03T05:50:13;0.30;99.90
29403;DHT22;16382;59.942;30.472;2023-04-03T05:52:43;0.40;99.90
29403;DHT22;16382;59.942;30.472;2023-04-03T05:55:14;0.50;99.90
29403;DHT22;16382;59.942;30.472;2023-04-03T05:57:42;0.60;99.90
29403;DHT22;16382;59.942;30.472;2023-04-03T06:00:13;0.80;99.90
29403;DHT22;16382;59.942;30.472;2023-04-03T06:02:48;1.00;99.90
29403;DHT22;16382;59.942;30.472;2023-04-03T06:05:21;1.10;99.90
29403;DHT22;16382;59.942;30.472;2023-04-03T06:07:49;1.20;99.90
29403;DHT22;16382;59.942;30.472;2023-04-03T06:10:17;1.20;99.90
29403;DHT22;16382;59.942;30.472;2023-04-03T06:12:46;1.10;99.90
29403;DHT22;16382;59.942;30.472;2023-04-03T06:15:13;1.00;99.90
29403;DHT22;16382;59.942;30.472;2023-04-03T06:17:42;1.00;99.90
29403;DHT22;16382;59.942;30.472;2023-04-03T06:20:12;1.10;99.90
29403;DHT22;16382;59.942;30.472;2023-04-03T06:22:40;1.20;99.90
29403;DHT22;16382;59.942;30.472;2023-04-03T06:25:08;1.20;99.90
29403;DHT22;16382;59.942;30.472;2023-04-03T06:27:36;1.20;99.90
29403;DHT22;16382;59.942;30.472;2023-04-03T06:30:05;1.20;99.90
29403;DHT22;16382;59.942;30.472;2023-04-03T06:32:34;1.20;99.90
29403;DHT22;16382;59.942;30.472;2023-04-03T06:35:01;1.20;99.90
29403;DHT22;16382;59.942;30.472;2023-04-03T06:37:30;1.20;99.90
29403;DHT22;16382;59.942;30.472;2023-04-03T06:39:58;1.30;99.90
29403;DHT22;16382;59.942;30.472;2023-04-03T06:42:27;1.50;99.90
29403;DHT22;16382;59.942;30.472;2023-04-03T06:45:10;1.60;99.90
29403;DHT22;16382;59.942;30.472;2023-04-03T06:47:38;1.60;99.90
29403;DHT22;16382;59.942;30.472;2023-04-03T06:50:06;1.60;99.90
29403;DHT22;16382;59.942;30.472;2023-04-03T06:52:36;1.60;99.90
29403;DHT22;16382;59.942;30.472;2023-04-03T06:55:06;1.60;99.90
29403;DHT22;16382;59.942;30.472;2023-04-03T06:57:35;1.60;99.90
29403;DHT22;16382;59.942;30.472;2023-04-03T07:00:04;1.50;99.90
29403;DHT22;16382;59.942;30.472;2023-04-03T07:02:32;1.40;99.90
29403;DHT22;16382;59.942;30.472;2023-04-03T07:05:00;1.30;99.90
29403;DHT22;16382;59.942;30.472;2023-04-03T07:07:29;1.30;99.90
29403;DHT22;16382;59.942;30.472;2023-04-03T07:09:58;1.40;99.90
29403;DHT22;16382;59.942;30.472;2023-04-03T07:12:26;1.50;99.90
29403;DHT22;16382;59.942;30.472;2023-04-03T07:14:53;1.50;99.90
29403;DHT22;16382;59.942;30.472;2023-04-03T07:17:21;1.50;99.90
29403;DHT22;16382;59.942;30.472;2023-04-03T07:19:50;1.40;99.90
29403;DHT22;16382;59.942;30.472;2023-04-03T07:22:23;1.40;99.90
29403;DHT22;16382;59.942;30.472;2023-04-03T07:24:50;1.60;99.90
29403;DHT22;16382;59.942;30.472;2023-04-03T07:27:19;1.70;99.90
29403;DHT22;16382;59.942;30.472;2023-04-03T07:29:47;1.90;99.90
29403;DHT22;16382;59.942;30.472;2023-04-03T07:32:15;2.10;99.90
29403;DHT22;16382;59.942;30.472;2023-04-03T07:34:44;2.30;99.90
29403;DHT22;16382;59.942;30.472;2023-04-03T07:37:11;2.40;99.90
29403;DHT22;16382;59.942;30.472;2023-04-03T07:39:39;2.50;99.90
29403;DHT22;16382;59.942;30.472;2023-04-03T07:42:07;2.70;99.90
29403;DHT22;16382;59.942;30.472;2023-04-03T07:44:36;2.80;99.90
29403;DHT22;16382;59.942;30.472;2023-04-03T07:47:04;2.80;99.90
29403;DHT22;16382;59.942;30.472;2023-04-03T07:49:31;3.10;99.90
29403;DHT22;16382;59.942;30.472;2023-04-03T07:52:00;3.30;99.90
29403;DHT22;16382;59.942;30.472;2023-04-03T07:54:29;3.40;99.90
29403;DHT22;16382;59.942;30.472;2023-04-03T07:56:56;3.40;99.90
29403;DHT22;16382;59.942;30.472;2023-04-03T07:59:24;3.40;99.90
29403;DHT22;16382;59.942;30.472;2023-04-03T08:01:53;3.10;99.90
29403;DHT22;16382;59.942;30.472;2023-04-03T08:04:20;3.00;99.90
29403;DHT22;16382;59.942;30.472;2023-04-03T08:06:48;3.00;99.90
29403;DHT22;16382;59.942;30.472;2023-04-03T08:09:15;2.80;99.90
29403;DHT22;16382;59.942;30.472;2023-04-03T08:11:45;2.80;99.90
29403;DHT22;16382;59.942;30.472;2023-04-03T08:14:13;2.80;99.90
29403;DHT22;16382;59.942;30.472;2023-04-03T08:16:43;2.80;99.90
29403;DHT22;16382;59.942;30.472;2023-04-03T08:19:12;2.60;99.90
29403;DHT22;16382;59.942;30.472;2023-04-03T08:21:42;2.60;99.90
29403;DHT22;16382;59.942;30.472;2023-04-03T08:24:09;2.50;99.90
29403;DHT22;16382;59.942;30.472;2023-04-03T08:26:37;2.60;99.90
29403;DHT22;16382;59.942;30.472;2023-04-03T08:29:05;2.50;99.90
29403;DHT22;16382;59.942;30.472;2023-04-03T08:31:33;2.40;99.90
29403;DHT22;16382;59.942;30.472;2023-04-03T08:34:03;2.40;99.90
29403;DHT22;16382;59.942;30.472;2023-04-03T08:36:32;2.50;99.90
29403;DHT22;16382;59.942;30.472;2023-04-03T08:39:00;2.70;99.90
29403;DHT22;16382;59.942;30.472;2023-04-03T08:41:32;2.80;99.90
29403;DHT22;16382;59.942;30.472;2023-04-03T08:44:09;2.90;99.90
29403;DHT22;16382;59.942;30.472;2023-04-03T08:46:52;3.00;99.90
29403;DHT22;16382;59.942;30.472;2023-04-03T08:49:28;3.00;99.90
29403;DHT22;16382;59.942;30.472;2023-04-03T08:52:03;3.10;99.90
29403;DHT22;16382;59.942;30.472;2023-04-03T08:54:34;3.30;99.90
29403;DHT22;16382;59.942;30.472;2023-04-03T08:57:05;3.40;99.90
29403;DHT22;16382;59.942;30.472;2023-04-03T08:59:34;3.30;99.90
29403;DHT22;16382;59.942;30.472;2023-04-03T09:02:21;3.30;99.90
29403;DHT22;16382;59.942;30.472;2023-04-03T09:04:52;3.40;99.90
29403;DHT22;16382;59.942;30.472;2023-04-03T09:07:30;3.50;99.90
29403;DHT22;16382;59.942;30.472;2023-04-03T09:10:00;3.50;99.90
29403;DHT22;16382;59.942;30.472;2023-04-03T09:12:36;3.50;99.90
29403;DHT22;16382;59.942;30.472;2023-04-03T09:15:14;3.40;99.90
29403;DHT22;16382;59.942;30.472;2023-04-03T09:17:53;3.30;99.90
29403;DHT22;16382;59.942;30.472;2023-04-03T09:20:39;3.30;99.90
29403;DHT22;16382;59.942;30.472;2023-04-03T09:23:20;3.30;99.90
29403;DHT22;16382;59.942;30.472;2023-04-03T09:25:51;3.30;99.90
29403;DHT22;16382;59.942;30.472;2023-04-03T09:28:20;3.30;99.90
29403;DHT22;16382;59.942;30.472;2023-04-03T09:30:48;3.40;99.90
29403;DHT22;16382;59.942;30.472;2023-04-03T09:33:16;3.50;99.90
29403;DHT22;16382;59.942;30.472;2023-04-03T09:35:44;3.70;99.90
29403;DHT22;16382;59.942;30.472;2023-04-03T09:38:19;3.90;99.90
29403;DHT22;16382;59.942;30.472;2023-04-03T09:40:48;3.80;99.90
29403;DHT22;16382;59.942;30.472;2023-04-03T09:43:28;3.80;99.90
29403;DHT22;16382;59.942;30.472;2023-04-03T09:46:16;3.90;99.90
29403;DHT22;16382;59.942;30.472;2023-04-03T09:48:55;4.00;99.90
29403;DHT22;16382;59.942;30.472;2023-04-03T09:51:26;4.00;99.90
29403;DHT22;16382;59.942;30.472;2023-04-03T09:53:56;4.00;99.90
29403;DHT22;16382;59.942;30.472;2023-04-03T09:56:27;4.10;99.90
29403;DHT22;16382;59.942;30.472;2023-04-03T09:59:13;4.30;99.90
29403;DHT22;16382;59.942;30.472;2023-04-03T10:01:43;4.30;99.90
29403;DHT22;16382;59.942;30.472;2023-04-03T10:04:25;4.30;99.90
29403;DHT22;16382;59.942;30.472;2023-04-03T10:07:25;4.20;99.90
29403;DHT22;16382;59.942;30.472;2023-04-03T10:09:57;4.20;99.90
29403;DHT22;16382;59.942;30.472;2023-04-03T10:12:24;4.20;99.90
29403;DHT22;16382;59.942;30.472;2023-04-03T10:14:57;4.10;99.90
29403;DHT22;16382;59.942;30.472;2023-04-03T10:17:42;4.00;99.90
29403;DHT22;16382;59.942;30.472;2023-04-03T10:20:27;3.80;99.90
29403;DHT22;16382;59.942;30.472;2023-04-03T10:23:15;3.90;99.90
29403;DHT22;16382;59.942;30.472;2023-04-03T10:25:58;3.80;99.90
29403;DHT22;16382;59.942;30.472;2023-04-03T10:28:34;3.90;99.90
29403;DHT22;16382;59.942;30.472;2023-04-03T10:31:14;4.10;99.90
29403;DHT22;16382;59.942;30.472;2023-04-03T10:33:53;4.20;99.90
29403;DHT22;16382;59.942;30.472;2023-04-03T10:36:32;4.40;99.90
29403;DHT22;16382;59.942;30.472;2023-04-03T10:39:10;4.50;99.90
29403;DHT22;16382;59.942;30.472;2023-04-03T10:41:53;4.40;99.90
29403;DHT22;16382;59.942;30.472;2023-04-03T10:44:31;4.40;99.90
29403;DHT22;16382;59.942;30.472;2023-04-03T10:47:11;4.40;99.90
29403;DHT22;16382;59.942;30.472;2023-04-03T10:49:50;4.40;99.90
29403;DHT22;16382;59.942;30.472;2023-04-03T10:52:25;4.50;99.90
29403;DHT22;16382;59.942;30.472;2023-04-03T10:55:03;4.40;99.90
29403;DHT22;16382;59.942;30.472;2023-04-03T10:57:40;4.40;99.90
29403;DHT22;16382;59.942;30.472;2023-04-03T11:00:16;4.30;99.90
29403;DHT22;16382;59.942;30.472;2023-04-03T11:02:49;4.30;99.90
29403;DHT22;16382;59.942;30.472;2023-04-03T11:05:28;4.30;99.90
29403;DHT22;16382;59.942;30.472;2023-04-03T11:08:02;4.20;99.90
29403;DHT22;16382;59.942;30.472;2023-04-03T11:10:37;4.20;99.90
29403;DHT22;16382;59.942;30.472;2023-04-03T11:13:15;4.10;99.90
29403;DHT22;16382;59.942;30.472;2023-04-03T11:15:44;3.90;99.90
29403;DHT22;16382;59.942;30.472;2023-04-03T11:18:15;3.80;99.90
29403;DHT22;16382;59.942;30.472;2023-04-03T11:20:55;3.80;99.90
29403;DHT22;16382;59.942;30.472;2023-04-03T11:23:28;3.80;99.90
29403;DHT22;16382;59.942;30.472;2023-04-03T11:26:07;3.70;99.90
29403;DHT22;16382;59.942;30.472;2023-04-03T11:28:38;3.70;99.90
29403;DHT22;16382;59.942;30.472;2023-04-03T11:31:19;3.60;99.90
29403;DHT22;16382;59.942;30.472;2023-04-03T11:34:02;3.60;99.90
29403;DHT22;16382;59.942;30.472;2023-04-03T11:36:41;3.40;99.90
29403;DHT22;16382;59.942;30.472;2023-04-03T11:39:19;3.30;99.90
29403;DHT22;16382;59.942;30.472;2023-04-03T11:41:50;3.20;99.90
29403;DHT22;16382;59.942;30.472;2023-04-03T11:44:31;3.20;99.90
29403;DHT22;16382;59.942;30.472;2023-04-03T11:47:03;3.10;99.90
29403;DHT22;16382;59.942;30.472;2023-04-03T11:49:56;3.10;99.90
29403;DHT22;16382;59.942;30.472;2023-04-03T11:52:56;3.10;99.90
29403;DHT22;16382;59.942;30.472;2023-04-03T11:55:59;3.10;99.90
29403;DHT22;16382;59.942;30.472;2023-04-03T11:58:29;3.00;99.90
29403;DHT22;16382;59.942;30.472;2023-04-03T12:01:02;2.90;99.90
29403;DHT22;16382;59.942;30.472;2023-04-03T12:07:02;2.70;99.90
29403;DHT22;16382;59.942;30.472;2023-04-03T12:10:15;2.60;99.90
29403;DHT22;16382;59.942;30.472;2023-04-03T12:12:58;2.60;99.90
29403;DHT22;16382;59.942;30.472;2023-04-03T12:15:52;2.50;99.90
29403;DHT22;16382;59.942;30.472;2023-04-03T12:18:56;2.50;99.90
29403;DHT22;16382;59.942;30.472;2023-04-03T12:24:48;2.50;99.90
29403;DHT22;16382;59.942;30.472;2023-04-03T12:27:29;2.60;99.90
29403;DHT22;16382;59.942;30.472;2023-04-03T12:30:07;2.70;99.90
29403;DHT22;16382;59.942;30.472;2023-04-03T12:33:11;2.60;99.90
29403;DHT22;16382;59.942;30.472;2023-04-03T12:35:49;2.50;99.90
29403;DHT22;16382;59.942;30.472;2023-04-03T12:38:41;2.40;99.90
29403;DHT22;16382;59.942;30.472;2023-04-03T12:41:26;2.40;99.90
29403;DHT22;16382;59.942;30.472;2023-04-03T12:44:19;2.30;99.90
29403;DHT22;16382;59.942;30.472;2023-04-03T12:46:54;2.30;99.90
29403;DHT22;16382;59.942;30.472;2023-04-03T12:49:33;2.40;99.90
29403;DHT22;16382;59.942;30.472;2023-04-03T12:52:05;2.40;99.90
29403;DHT22;16382;59.942;30.472;2023-04-03T12:54:46;2.50;99.90
29403;DHT22;16382;59.942;30.472;2023-04-03T12:57:18;2.50;99.90
29403;DHT22;16382;59.942;30.472;2023-04-03T12:59:47;2.50;99.90
29403;DHT22;16382;59.942;30.472;2023-04-03T13:02:21;2.50;99.90
29403;DHT22;16382;59.942;30.472;2023-04-03T13:04:51;2.50;99.90
29403;DHT22;16382;59.942;30.472;2023-04-03T13:07:23;2.40;99.90
29403;DHT22;16382;59.942;30.472;2023-04-03T13:10:04;2.40;99.90
29403;DHT22;16382;59.942;30.472;2023-04-03T13:12:53;2.30;99.90
29403;DHT22;16382;59.942;30.472;2023-04-03T13:15:24;2.30;99.90
29403;DHT22;16382;59.942;30.472;2023-04-03T13:17:53;2.30;99.90
29403;DHT22;16382;59.942;30.472;2023-04-03T13:20:25;2.20;99.90
29403;DHT22;16382;59.942;30.472;2023-04-03T13:22:57;2.20;99.90
29403;DHT22;16382;59.942;30.472;2023-04-03T13:25:44;2.20;99.90
29403;DHT22;16382;59.942;30.472;2023-04-03T13:28:27;2.20;99.90
29403;DHT22;16382;59.942;30.472;2023-04-03T13:31:05;2.20;99.90
29403;DHT22;16382;59.942;30.472;2023-04-03T13:33:36;2.20;99.90
29403;DHT22;16382;59.942;30.472;2023-04-03T13:36:07;2.20;99.90
29403;DHT22;16382;59.942;30.472;2023-04-03T13:38:37;2.20;99.90
29403;DHT22;16382;59.942;30.472;2023-04-03T13:41:23;2.20;99.90
29403;DHT22;16382;59.942;30.472;2023-04-03T13:43:53;2.10;99.90
29403;DHT22;16382;59.942;30.472;2023-04-03T13:46:24;2.10;99.90
29403;DHT22;16382;59.942;30.472;2023-04-03T13:48:55;2.10;99.90
29403;DHT22;16382;59.942;30.472;2023-04-03T13:51:26;2.10;99.90
29403;DHT22;16382;59.942;30.472;2023-04-03T13:54:00;2.10;99.90
29403;DHT22;16382;59.942;30.472;2023-04-03T13:56:36;2.10;99.90
29403;DHT22;16382;59.942;30.472;2023-04-03T13:59:21;2.10;99.90
29403;DHT22;16382;59.942;30.472;2023-04-03T14:01:54;2.10;99.90
29403;DHT22;16382;59.942;30.472;2023-04-03T14:04:46;2.00;99.90
29403;DHT22;16382;59.942;30.472;2023-04-03T14:07:17;2.00;99.90
29403;DHT22;16382;59.942;30.472;2023-04-03T14:09:47;2.00;99.90
29403;DHT22;16382;59.942;30.472;2023-04-03T14:12:19;2.00;99.90
29403;DHT22;16382;59.942;30.472;2023-04-03T14:14:52;2.00;99.90
29403;DHT22;16382;59.942;30.472;2023-04-03T14:17:21;2.00;99.90
29403;DHT22;16382;59.942;30.472;2023-04-03T14:19:53;2.00;99.90
29403;DHT22;16382;59.942;30.472;2023-04-03T14:22:26;2.00;99.90
29403;DHT22;16382;59.942;30.472;2023-04-03T14:24:59;2.00;99.90
29403;DHT22;16382;59.942;30.472;2023-04-03T14:27:29;2.00;99.90
29403;DHT22;16382;59.942;30.472;2023-04-03T14:30:00;2.00;99.90
29403;DHT22;16382;59.942;30.472;2023-04-03T14:32:30;2.00;99.90
29403;DHT22;16382;59.942;30.472;2023-04-03T14:35:01;2.00;99.90
29403;DHT22;16382;59.942;30.472;2023-04-03T14:37:33;2.10;99.90
29403;DHT22;16382;59.942;30.472;2023-04-03T14:40:08;2.10;99.90
29403;DHT22;16382;59.942;30.472;2023-04-03T14:42:38;2.10;99.90
29403;DHT22;16382;59.942;30.472;2023-04-03T14:45:10;2.10;99.90
29403;DHT22;16382;59.942;30.472;2023-04-03T14:47:42;2.00;99.90
29403;DHT22;16382;59.942;30.472;2023-04-03T14:50:14;2.00;99.90
29403;DHT22;16382;59.942;30.472;2023-04-03T14:52:44;2.00;99.90
29403;DHT22;16382;59.942;30.472;2023-04-03T14:55:15;1.90;99.90
29403;DHT22;16382;59.942;30.472;2023-04-03T14:57:44;1.80;99.90
29403;DHT22;16382;59.942;30.472;2023-04-03T15:00:14;1.80;99.90
29403;DHT22;16382;59.942;30.472;2023-04-03T15:02:43;1.80;99.90
29403;DHT22;16382;59.942;30.472;2023-04-03T15:05:12;1.80;99.90
29403;DHT22;16382;59.942;30.472;2023-04-03T15:07:41;1.80;99.90
29403;DHT22;16382;59.942;30.472;2023-04-03T15:10:18;1.70;99.90
29403;DHT22;16382;59.942;30.472;2023-04-03T15:12:48;1.70;99.90
29403;DHT22;16382;59.942;30.472;2023-04-03T15:15:18;1.70;99.90
29403;DHT22;16382;59.942;30.472;2023-04-03T15:17:50;1.70;99.90
29403;DHT22;16382;59.942;30.472;2023-04-03T15:20:21;1.70;99.90
29403;DHT22;16382;59.942;30.472;2023-04-03T15:22:50;1.70;99.90
29403;DHT22;16382;59.942;30.472;2023-04-03T15:25:19;1.70;99.90
29403;DHT22;16382;59.942;30.472;2023-04-03T15:27:47;1.70;99.90
29403;DHT22;16382;59.942;30.472;2023-04-03T15:30:16;1.70;99.90
29403;DHT22;16382;59.942;30.472;2023-04-03T15:32:48;1.70;99.90
29403;DHT22;16382;59.942;30.472;2023-04-03T15:35:24;1.70;99.90
29403;DHT22;16382;59.942;30.472;2023-04-03T15:37:51;1.70;99.90
29403;DHT22;16382;59.942;30.472;2023-04-03T15:40:21;1.70;99.90
29403;DHT22;16382;59.942;30.472;2023-04-03T15:42:48;1.70;99.90
29403;DHT22;16382;59.942;30.472;2023-04-03T15:45:16;1.70;99.90
29403;DHT22;16382;59.942;30.472;2023-04-03T15:47:44;1.70;99.90
29403;DHT22;16382;59.942;30.472;2023-04-03T15:50:12;1.70;99.90
29403;DHT22;16382;59.942;30.472;2023-04-03T15:52:41;1.70;99.90
29403;DHT22;16382;59.942;30.472;2023-04-03T15:55:09;1.70;99.90
29403;DHT22;16382;59.942;30.472;2023-04-03T15:57:38;1.70;99.90
29403;DHT22;16382;59.942;30.472;2023-04-03T16:00:07;1.60;99.90
29403;DHT22;16382;59.942;30.472;2023-04-03T16:02:36;1.60;99.90
29403;DHT22;16382;59.942;30.472;2023-04-03T16:05:05;1.50;99.90